Time;durP1;ratioP1;P1;durP2;ratioP2;P2;SDS_P1;SDS_P2;PMS_P1;PMS_P2;Temp;Humidity;BMP_temperature;BMP_pressure;BME280_temperature;BME280_humidity;BME280_pressure;Samples;Min_cycle;Max_cycle;Signal;HPM_P1;HPM_P2
2022/08/28 00:01:33;;;;;;;23.52;11.43;;;;;;;;;;1747161;82;21027;-61
2022/08/28 00:04:00;;;;;;;23.02;10.30;;;;;;;;;;1683878;83;21548;-61
2022/08/28 00:06:27;;;;;;;22.50;10.10;;;;;;;;;;1690720;83;21545;-61
2022/08/28 00:08:54;;;;;;;17.45;9.10;;;;;;;;;;1723596;81;21071;-61
2022/08/28 00:11:22;;;;;;;21.55;9.90;;;;;;;;;;1743689;82;21007;-61
2022/08/28 00:13:51;;;;;;;22.48;10.03;;;;;;;;;;1722702;82;21039;-61
2022/08/28 00:16:18;;;;;;;22.95;10.35;;;;;;;;;;1684716;83;21543;-62
2022/08/28 00:18:45;;;;;;;22.75;10.23;;;;;;;;;;1696564;82;21097;-61
2022/08/28 00:21:12;;;;;;;19.95;10.50;;;;;;;;;;1684184;83;21033;-61
2022/08/28 00:23:40;;;;;;;21.93;10.80;;;;;;;;;;1713322;82;21023;-62
2022/08/28 00:26:07;;;;;;;23.67;10.88;;;;;;;;;;1683258;83;21092;-61
2022/08/28 00:28:34;;;;;;;18.48;10.18;;;;;;;;;;1743976;82;21110;-61
2022/08/28 00:31:03;;;;;;;20.60;10.23;;;;;;;;;;1734246;81;21508;-61
2022/08/28 00:33:32;;;;;;;17.87;10.40;;;;;;;;;;1714476;83;21535;-62
2022/08/28 00:36:01;;;;;;;25.50;10.25;;;;;;;;;;1723737;82;21048;-61
2022/08/28 00:38:28;;;;;;;24.65;10.55;;;;;;;;;;1730507;82;21019;-61
2022/08/28 00:40:58;;;;;;;23.60;10.32;;;;;;;;;;1714504;82;21571;-61
2022/08/28 00:43:37;;;;;;;19.73;9.73;;;;;;;;;;1686606;83;21556;-61
2022/08/28 00:46:08;;;;;;;18.27;10.38;;;;;;;;;;1712989;83;21041;-61
2022/08/28 00:48:36;;;;;;;21.42;10.95;;;;;;;;;;1687151;84;21056;-61
2022/08/28 00:53:51;;;;;;;24.60;12.07;;;;;;;;;;1717251;82;21082;-61
2022/08/28 00:56:18;;;;;;;20.37;10.63;;;;;;;;;;1699797;83;21560;-61
2022/08/28 00:58:47;;;;;;;22.32;11.22;;;;;;;;;;1733511;81;21042;-61
2022/08/28 01:01:15;;;;;;;22.95;10.72;;;;;;;;;;1684011;83;21073;-61
2022/08/28 01:03:42;;;;;;;26.82;11.48;;;;;;;;;;1716035;82;21039;-61
2022/08/28 01:06:10;;;;;;;26.15;11.78;;;;;;;;;;1743005;82;21040;-61
2022/08/28 01:08:39;;;;;;;22.05;12.15;;;;;;;;;;1727090;82;21011;-61
2022/08/28 01:11:06;;;;;;;21.20;11.18;;;;;;;;;;1737380;81;21054;-61
2022/08/28 01:13:35;;;;;;;21.73;11.53;;;;;;;;;;1715663;83;21557;-61
2022/08/28 01:16:02;;;;;;;23.45;11.25;;;;;;;;;;1718261;82;21042;-61
2022/08/28 01:18:31;;;;;;;20.80;11.12;;;;;;;;;;1704690;83;21410;-61
2022/08/28 01:21:04;;;;;;;23.45;10.50;;;;;;;;;;1721180;81;21015;-61
2022/08/28 01:23:52;;;;;;;22.20;10.50;;;;;;;;;;1688812;83;21054;-61
2022/08/28 01:26:19;;;;;;;23.05;10.55;;;;;;;;;;1731335;81;21043;-60
2022/08/28 01:28:47;;;;;;;27.22;10.50;;;;;;;;;;1740466;82;21094;-61
2022/08/28 01:31:14;;;;;;;19.92;10.15;;;;;;;;;;1722417;82;21027;-61
2022/08/28 01:33:42;;;;;;;18.45;9.88;;;;;;;;;;1700937;83;21067;-61
2022/08/28 01:36:11;;;;;;;27.13;10.50;;;;;;;;;;1696155;83;21088;-61
2022/08/28 01:38:39;;;;;;;29.35;11.80;;;;;;;;;;1677418;85;21052;-61
2022/08/28 01:41:06;;;;;;;23.18;10.93;;;;;;;;;;1701298;83;21069;-61
2022/08/28 01:43:33;;;;;;;21.07;11.48;;;;;;;;;;1703218;83;21522;-61
2022/08/28 01:46:03;;;;;;;21.00;11.12;;;;;;;;;;1683167;84;21060;-61
2022/08/28 01:48:34;;;;;;;23.47;11.90;;;;;;;;;;1708582;82;21075;-61
2022/08/28 01:51:02;;;;;;;19.57;11.20;;;;;;;;;;1721254;82;21558;-61
2022/08/28 01:53:30;;;;;;;23.42;11.12;;;;;;;;;;1712301;83;21055;-61
2022/08/28 01:55:59;;;;;;;19.70;11.05;;;;;;;;;;1686198;83;21048;-61
2022/08/28 01:58:27;;;;;;;21.35;10.68;;;;;;;;;;1699372;83;21013;-61
2022/08/28 02:00:54;;;;;;;17.52;10.53;;;;;;;;;;1713758;82;21126;-61
2022/08/28 02:03:22;;;;;;;18.10;10.88;;;;;;;;;;1686480;83;21528;-61
2022/08/28 02:05:50;;;;;;;21.90;10.68;;;;;;;;;;1685678;83;21580;-62
2022/08/28 02:08:17;;;;;;;24.80;11.10;;;;;;;;;;1722932;82;21571;-61
2022/08/28 02:10:45;;;;;;;18.90;10.72;;;;;;;;;;1722881;82;21067;-61
2022/08/28 02:13:12;;;;;;;20.00;10.70;;;;;;;;;;1682303;83;21072;-61
2022/08/28 02:15:41;;;;;;;22.87;10.75;;;;;;;;;;1690755;83;21028;-61
2022/08/28 02:18:09;;;;;;;19.48;10.48;;;;;;;;;;1710086;82;21171;-61
2022/08/28 02:20:36;;;;;;;20.65;10.90;;;;;;;;;;1725821;81;21567;-61
2022/08/28 02:23:04;;;;;;;23.15;10.75;;;;;;;;;;1695161;83;21069;-61
2022/08/28 02:25:32;;;;;;;19.65;10.48;;;;;;;;;;1714921;82;21075;-61
2022/08/28 02:28:00;;;;;;;20.65;10.72;;;;;;;;;;1714034;82;21035;-61
2022/08/28 02:30:27;;;;;;;23.80;10.80;;;;;;;;;;1723853;82;21067;-61
2022/08/28 02:32:54;;;;;;;18.10;10.60;;;;;;;;;;1688318;83;21551;-61
2022/08/28 02:35:22;;;;;;;19.07;9.88;;;;;;;;;;1684042;83;21049;-62
2022/08/28 02:37:50;;;;;;;19.73;10.25;;;;;;;;;;1682553;83;21056;-61
2022/08/28 02:40:19;;;;;;;20.05;9.38;;;;;;;;;;1722643;81;21530;-61
2022/08/28 02:42:46;;;;;;;20.05;10.13;;;;;;;;;;1719057;82;21460;-61
2022/08/28 02:45:14;;;;;;;21.50;9.90;;;;;;;;;;1713993;82;21445;-61
2022/08/28 02:47:44;;;;;;;18.25;9.25;;;;;;;;;;1712175;83;21039;-61
2022/08/28 02:50:14;;;;;;;17.65;9.45;;;;;;;;;;1729427;82;21094;-61
2022/08/28 02:52:41;;;;;;;21.93;9.75;;;;;;;;;;1718946;82;21071;-61
2022/08/28 02:55:11;;;;;;;20.17;9.60;;;;;;;;;;1728665;81;21031;-61
2022/08/28 02:57:38;;;;;;;21.15;10.18;;;;;;;;;;1717913;81;21015;-61
2022/08/28 03:00:07;;;;;;;21.73;9.48;;;;;;;;;;1715504;82;21012;-61
2022/08/28 03:02:35;;;;;;;19.80;9.33;;;;;;;;;;1718661;82;21042;-62
2022/08/28 03:05:02;;;;;;;16.30;9.70;;;;;;;;;;1702263;83;21480;-60
2022/08/28 03:07:30;;;;;;;22.02;10.05;;;;;;;;;;1750400;82;21079;-61
2022/08/28 03:09:58;;;;;;;17.62;9.30;;;;;;;;;;1722728;81;21031;-61
2022/08/28 03:12:24;;;;;;;20.90;9.98;;;;;;;;;;1716757;82;21082;-61
2022/08/28 03:14:52;;;;;;;24.07;10.25;;;;;;;;;;1721243;82;21074;-61
2022/08/28 03:17:20;;;;;;;20.10;9.90;;;;;;;;;;1720003;82;21534;-61
2022/08/28 03:19:51;;;;;;;18.32;9.80;;;;;;;;;;1750714;80;21107;-61
2022/08/28 03:23:24;;;;;;;19.87;9.80;;;;;;;;;;1713051;82;21043;-61
2022/08/28 03:24:50;;;;;;;20.70;10.25;;;;;;;;;;1711971;83;21078;-61
2022/08/28 03:27:17;;;;;;;21.17;10.15;;;;;;;;;;1715423;82;21028;-61
2022/08/28 03:29:44;;;;;;;18.65;9.85;;;;;;;;;;1719414;82;21067;-61
2022/08/28 03:32:11;;;;;;;21.85;9.70;;;;;;;;;;1728879;82;21054;-61
2022/08/28 03:34:39;;;;;;;17.65;10.35;;;;;;;;;;1723251;81;21071;-62
2022/08/28 03:37:07;;;;;;;17.32;9.78;;;;;;;;;;1695715;83;21025;-61
2022/08/28 03:39:35;;;;;;;18.62;9.55;;;;;;;;;;1706186;83;21186;-61
2022/08/28 03:42:01;;;;;;;19.55;9.95;;;;;;;;;;1712844;82;21012;-60
2022/08/28 03:44:28;;;;;;;17.40;9.68;;;;;;;;;;1729831;82;21051;-61
2022/08/28 03:46:55;;;;;;;17.73;10.20;;;;;;;;;;1734516;82;21511;-61
2022/08/28 03:49:23;;;;;;;20.37;10.70;;;;;;;;;;1746926;82;21039;-61
2022/08/28 03:51:50;;;;;;;25.02;10.40;;;;;;;;;;1733119;82;21042;-61
2022/08/28 03:54:18;;;;;;;21.25;10.58;;;;;;;;;;1721734;82;21031;-61
2022/08/28 03:56:46;;;;;;;23.10;10.68;;;;;;;;;;1679467;83;21044;-61
2022/08/28 03:59:13;;;;;;;19.25;10.40;;;;;;;;;;1678938;83;21068;-60
2022/08/28 04:01:40;;;;;;;17.77;9.95;;;;;;;;;;1686813;84;21053;-61
2022/08/28 04:04:06;;;;;;;20.20;10.30;;;;;;;;;;1671319;84;21507;-61
2022/08/28 04:06:34;;;;;;;20.32;10.13;;;;;;;;;;1741052;82;21047;-61
2022/08/28 04:09:01;;;;;;;25.65;11.25;;;;;;;;;;1719128;82;20972;-61
2022/08/28 04:11:28;;;;;;;24.45;10.70;;;;;;;;;;1728777;82;21079;-61
2022/08/28 04:13:56;;;;;;;20.62;10.38;;;;;;;;;;1729219;82;21059;-61
2022/08/28 04:16:24;;;;;;;24.15;10.70;;;;;;;;;;1714153;82;21551;-61
2022/08/28 04:18:52;;;;;;;19.57;10.48;;;;;;;;;;1716725;80;21111;-61
2022/08/28 04:21:22;;;;;;;21.57;11.00;;;;;;;;;;1717335;82;21573;-60
2022/08/28 04:23:49;;;;;;;20.50;11.03;;;;;;;;;;1704194;83;21090;-61
2022/08/28 04:26:19;;;;;;;20.20;10.90;;;;;;;;;;1753800;81;21039;-62
2022/08/28 04:28:46;;;;;;;18.77;10.75;;;;;;;;;;1729539;82;21039;-60
2022/08/28 04:31:14;;;;;;;18.45;10.98;;;;;;;;;;1687637;83;21057;-61
2022/08/28 04:33:42;;;;;;;29.20;11.03;;;;;;;;;;1717252;81;21227;-60
2022/08/28 04:36:14;;;;;;;20.55;10.08;;;;;;;;;;1721313;82;21063;-61
2022/08/28 04:38:42;;;;;;;23.67;11.20;;;;;;;;;;1713001;83;21067;-61
2022/08/28 04:41:10;;;;;;;22.95;10.58;;;;;;;;;;1689079;83;21204;-63
2022/08/28 04:43:37;;;;;;;23.80;10.00;;;;;;;;;;1715330;83;21071;-61
2022/08/28 04:46:06;;;;;;;23.30;10.15;;;;;;;;;;1713420;82;21012;-60
2022/08/28 04:48:36;;;;;;;23.80;9.50;;;;;;;;;;1713620;82;21043;-61
2022/08/28 04:51:06;;;;;;;23.07;9.33;;;;;;;;;;1712238;82;21047;-60
2022/08/28 04:53:33;;;;;;;26.73;9.03;;;;;;;;;;1718250;82;21104;-61
2022/08/28 04:56:03;;;;;;;20.90;9.38;;;;;;;;;;1718078;82;21031;-60
2022/08/28 04:58:31;;;;;;;33.35;9.70;;;;;;;;;;1694324;83;20996;-61
2022/08/28 05:00:57;;;;;;;28.27;9.45;;;;;;;;;;1733983;81;21044;-61
2022/08/28 05:03:24;;;;;;;26.75;9.18;;;;;;;;;;1740530;81;21046;-61
2022/08/28 05:05:52;;;;;;;28.75;8.98;;;;;;;;;;1735266;81;21006;-62
2022/08/28 05:08:21;;;;;;;23.75;9.88;;;;;;;;;;1737084;82;20980;-61
2022/08/28 05:10:49;;;;;;;26.65;9.23;;;;;;;;;;1719275;81;21015;-61
2022/08/28 05:13:18;;;;;;;22.02;9.33;;;;;;;;;;1736417;81;21078;-61
2022/08/28 05:15:47;;;;;;;31.73;9.28;;;;;;;;;;1723892;82;21040;-61
2022/08/28 05:18:15;;;;;;;27.35;9.93;;;;;;;;;;1738981;80;21063;-61
2022/08/28 05:20:45;;;;;;;23.67;9.00;;;;;;;;;;1713984;82;21051;-61
2022/08/28 05:23:13;;;;;;;32.17;9.43;;;;;;;;;;1700251;83;21030;-61
2022/08/28 05:25:42;;;;;;;27.58;9.20;;;;;;;;;;1689762;83;21650;-61
2022/08/28 05:28:10;;;;;;;27.42;9.30;;;;;;;;;;1717233;82;21016;-61
2022/08/28 05:30:38;;;;;;;28.23;9.50;;;;;;;;;;1694362;83;21065;-61
2022/08/28 05:33:06;;;;;;;36.03;9.55;;;;;;;;;;1700083;83;21006;-61
2022/08/28 05:35:35;;;;;;;23.80;8.98;;;;;;;;;;1696257;83;21529;-61
2022/08/28 05:38:02;;;;;;;27.50;8.65;;;;;;;;;;1716256;82;21567;-61
2022/08/28 05:40:29;;;;;;;28.90;9.23;;;;;;;;;;1752646;82;21044;-61
2022/08/28 05:42:56;;;;;;;27.67;8.60;;;;;;;;;;1741509;82;21030;-61
2022/08/28 05:45:23;;;;;;;26.30;8.68;;;;;;;;;;1725786;81;21031;-61
2022/08/28 05:47:50;;;;;;;33.33;8.73;;;;;;;;;;1679643;83;21063;-62
2022/08/28 05:50:18;;;;;;;34.65;8.88;;;;;;;;;;1683328;83;21012;-62
2022/08/28 05:52:45;;;;;;;33.53;8.10;;;;;;;;;;1686372;83;21039;-61
2022/08/28 05:55:12;;;;;;;28.50;8.33;;;;;;;;;;1688019;83;21020;-61
2022/08/28 05:57:39;;;;;;;31.15;8.60;;;;;;;;;;1725380;82;21012;-62
2022/08/28 06:00:11;;;;;;;35.28;8.93;;;;;;;;;;1739705;82;21089;-61
2022/08/28 06:02:40;;;;;;;28.83;8.38;;;;;;;;;;1734942;81;21483;-62
2022/08/28 06:05:08;;;;;;;32.58;9.03;;;;;;;;;;1756770;81;20987;-61
2022/08/28 06:07:35;;;;;;;37.30;8.13;;;;;;;;;;1735465;81;21040;-61
2022/08/28 06:10:03;;;;;;;38.20;8.38;;;;;;;;;;1766662;81;21020;-61
2022/08/28 06:12:31;;;;;;;37.25;8.30;;;;;;;;;;1721909;81;20991;-63
2022/08/28 06:14:59;;;;;;;40.80;8.25;;;;;;;;;;1710972;82;21527;-61
2022/08/28 06:17:26;;;;;;;42.08;8.15;;;;;;;;;;1736638;82;21526;-61
2022/08/28 06:19:53;;;;;;;31.95;7.35;;;;;;;;;;1745428;80;21170;-61
2022/08/28 06:22:20;;;;;;;38.05;8.10;;;;;;;;;;1750015;82;21536;-61
2022/08/28 06:24:47;;;;;;;31.37;7.17;;;;;;;;;;1714980;82;21086;-61
2022/08/28 06:27:13;;;;;;;40.92;7.90;;;;;;;;;;1737639;82;21031;-61
2022/08/28 06:29:41;;;;;;;37.15;7.80;;;;;;;;;;1733466;82;21047;-63
2022/08/28 06:32:08;;;;;;;33.08;7.28;;;;;;;;;;1726407;82;21479;-61
2022/08/28 06:34:35;;;;;;;28.67;7.05;;;;;;;;;;1732445;82;21027;-62
2022/08/28 06:37:02;;;;;;;31.97;7.50;;;;;;;;;;1727812;81;21086;-62
2022/08/28 06:39:29;;;;;;;29.35;7.10;;;;;;;;;;1744648;82;21538;-63
2022/08/28 06:41:55;;;;;;;29.48;7.40;;;;;;;;;;1720761;81;20997;-62
2022/08/28 06:44:22;;;;;;;36.20;7.05;;;;;;;;;;1728969;81;20980;-61
2022/08/28 06:46:51;;;;;;;34.75;7.75;;;;;;;;;;1726159;82;21514;-62
2022/08/28 06:49:18;;;;;;;38.75;7.22;;;;;;;;;;1730302;81;21062;-63
2022/08/28 06:51:45;;;;;;;38.30;7.50;;;;;;;;;;1719100;82;20981;-61
2022/08/28 06:54:14;;;;;;;33.75;6.85;;;;;;;;;;1718827;82;20979;-62
2022/08/28 06:56:41;;;;;;;22.22;6.55;;;;;;;;;;1731889;82;21054;-62
2022/08/28 06:59:08;;;;;;;26.62;7.15;;;;;;;;;;1740579;81;21095;-62
2022/08/28 07:01:36;;;;;;;32.25;6.92;;;;;;;;;;1736544;81;21040;-61
2022/08/28 07:04:06;;;;;;;29.27;7.05;;;;;;;;;;1729852;81;21528;-62
2022/08/28 07:06:39;;;;;;;28.02;7.10;;;;;;;;;;1738032;81;21011;-61
2022/08/28 07:09:08;;;;;;;32.63;6.87;;;;;;;;;;1734790;82;21008;-62
2022/08/28 07:11:35;;;;;;;34.23;7.08;;;;;;;;;;1743919;82;21371;-62
2022/08/28 07:14:03;;;;;;;24.98;6.70;;;;;;;;;;1735582;82;21004;-61
2022/08/28 07:16:33;;;;;;;25.68;6.10;;;;;;;;;;1717953;81;21042;-61
2022/08/28 07:19:05;;;;;;;27.48;5.62;;;;;;;;;;1721349;81;21097;-62
2022/08/28 07:21:30;;;;;;;27.10;6.03;;;;;;;;;;1731916;82;21074;-63
2022/08/28 07:23:57;;;;;;;21.65;5.55;;;;;;;;;;1724226;81;21058;-61
2022/08/28 07:26:25;;;;;;;21.70;5.80;;;;;;;;;;1736388;81;21060;-61
2022/08/28 07:28:54;;;;;;;24.47;5.47;;;;;;;;;;1726993;82;21539;-61
2022/08/28 07:31:24;;;;;;;17.92;5.25;;;;;;;;;;1731527;81;21003;-61
2022/08/28 07:33:53;;;;;;;23.02;5.78;;;;;;;;;;1741483;81;21051;-60
2022/08/28 07:36:23;;;;;;;21.48;5.58;;;;;;;;;;1722947;81;21091;-62
2022/08/28 07:38:50;;;;;;;19.60;5.37;;;;;;;;;;1742017;81;21031;-59
2022/08/28 07:41:20;;;;;;;26.95;5.55;;;;;;;;;;1716501;82;21001;-62
2022/08/28 07:46:34;;;;;;;26.25;5.80;;;;;;;;;;1739511;82;21051;-62
2022/08/28 07:49:01;;;;;;;28.05;6.33;;;;;;;;;;1720354;82;21051;-62
2022/08/28 07:51:28;;;;;;;24.47;6.00;;;;;;;;;;1734251;82;21019;-63
2022/08/28 07:53:56;;;;;;;22.22;5.80;;;;;;;;;;1736120;81;21023;-61
2022/08/28 07:56:24;;;;;;;24.57;5.58;;;;;;;;;;1688661;83;21076;-62
2022/08/28 07:58:52;;;;;;;29.32;5.83;;;;;;;;;;1697436;83;21039;-63
2022/08/28 08:01:19;;;;;;;26.80;5.65;;;;;;;;;;1705558;83;21087;-61
2022/08/28 08:03:46;;;;;;;30.37;6.17;;;;;;;;;;1684506;83;21055;-60
2022/08/28 08:06:14;;;;;;;30.35;6.53;;;;;;;;;;1653289;84;21065;-60
2022/08/28 08:08:41;;;;;;;34.00;6.60;;;;;;;;;;1673319;84;21089;-60
2022/08/28 08:11:11;;;;;;;25.00;5.85;;;;;;;;;;1690068;83;21036;-60
2022/08/28 08:13:38;;;;;;;23.47;6.47;;;;;;;;;;1685764;83;21035;-60
2022/08/28 08:16:08;;;;;;;31.93;6.60;;;;;;;;;;1651420;85;21065;-60
2022/08/28 08:18:36;;;;;;;28.05;6.60;;;;;;;;;;1656283;86;21603;-60
2022/08/28 08:21:05;;;;;;;29.95;6.62;;;;;;;;;;1651897;86;21013;-60
2022/08/28 08:23:37;;;;;;;30.60;6.60;;;;;;;;;;1652467;86;21055;-61
2022/08/28 08:26:07;;;;;;;28.62;6.50;;;;;;;;;;1639972;86;21555;-62
2022/08/28 08:28:37;;;;;;;28.80;6.62;;;;;;;;;;1686379;83;21008;-61
2022/08/28 08:31:07;;;;;;;31.23;7.05;;;;;;;;;;1692435;83;21102;-62
2022/08/28 08:33:37;;;;;;;30.95;6.72;;;;;;;;;;1671978;85;21572;-62
2022/08/28 08:36:06;;;;;;;36.25;7.95;;;;;;;;;;1688802;85;21109;-61
2022/08/28 08:38:34;;;;;;;34.10;8.28;;;;;;;;;;1657034;85;21059;-61
2022/08/28 08:41:21;;;;;;;31.02;8.60;;;;;;;;;;1660272;85;21112;-61
2022/08/28 08:44:04;;;;;;;33.95;8.40;;;;;;;;;;1695542;83;21052;-60
2022/08/28 08:46:51;;;;;;;45.58;9.98;;;;;;;;;;1681349;84;21086;-61
2022/08/28 08:49:19;;;;;;;35.00;9.38;;;;;;;;;;1659049;85;21120;-61
2022/08/28 08:51:59;;;;;;;38.80;11.00;;;;;;;;;;1699601;83;21126;-61
2022/08/28 08:54:26;;;;;;;43.50;10.15;;;;;;;;;;1687779;83;21047;-62
2022/08/28 08:56:55;;;;;;;37.45;9.13;;;;;;;;;;1697963;83;21091;-61
2022/08/28 08:59:26;;;;;;;34.85;9.40;;;;;;;;;;1666688;84;21096;-61
2022/08/28 09:02:03;;;;;;;33.18;8.50;;;;;;;;;;1684442;83;21082;-61
2022/08/28 09:04:53;;;;;;;36.23;9.88;;;;;;;;;;1690973;82;21517;-62
2022/08/28 09:07:36;;;;;;;23.57;8.25;;;;;;;;;;1719886;82;21042;-60
2022/08/28 09:10:07;;;;;;;36.70;8.18;;;;;;;;;;1720918;82;21999;-61
2022/08/28 09:12:37;;;;;;;28.40;8.35;;;;;;;;;;1728213;82;21101;-61
2022/08/28 09:15:31;;;;;;;29.18;8.45;;;;;;;;;;1719941;81;21037;-62
2022/08/28 09:18:24;;;;;;;30.05;7.62;;;;;;;;;;1728710;81;21031;-61
2022/08/28 09:20:53;;;;;;;29.52;6.75;;;;;;;;;;1720154;82;21098;-61
2022/08/28 09:23:22;;;;;;;35.23;7.75;;;;;;;;;;1706680;83;21556;-61
2022/08/28 09:25:58;;;;;;;32.55;7.22;;;;;;;;;;1728446;82;21000;-61
2022/08/28 09:28:28;;;;;;;32.00;6.83;;;;;;;;;;1718040;82;21027;-62
2022/08/28 09:30:59;;;;;;;24.12;6.53;;;;;;;;;;1738410;80;21653;-61
2022/08/28 09:33:38;;;;;;;36.85;7.00;;;;;;;;;;1739053;82;21048;-62
2022/08/28 09:36:36;;;;;;;31.35;6.80;;;;;;;;;;1742677;81;21075;-61
2022/08/28 09:39:09;;;;;;;35.43;7.17;;;;;;;;;;1746592;82;21056;-61
2022/08/28 09:44:53;;;;;;;32.10;6.90;;;;;;;;;;1742117;81;21071;-62
2022/08/28 09:47:47;;;;;;;27.87;6.62;;;;;;;;;;1737304;81;21078;-61
2022/08/28 09:50:30;;;;;;;24.90;6.58;;;;;;;;;;1735282;82;21122;-62
2022/08/28 09:53:01;;;;;;;29.82;6.47;;;;;;;;;;1725244;80;20975;-62
2022/08/28 09:55:58;;;;;;;27.98;6.33;;;;;;;;;;1694624;84;21087;-62
2022/08/28 10:00:46;;;;;;;25.75;6.17;;;;;;;;;;1840404;76;22553;-59
2022/08/28 10:07:49;;;;;;;34.35;6.37;;;;;;;;;;1798583;79;22305;-60
2022/08/28 10:10:27;;;;;;;27.05;6.47;;;;;;;;;;1754049;80;21391;-59
2022/08/28 10:13:00;;;;;;;35.52;7.17;;;;;;;;;;1755577;81;21000;-61
2022/08/28 10:15:47;;;;;;;25.62;6.37;;;;;;;;;;1751139;81;21063;-59
2022/08/28 10:18:29;;;;;;;24.90;6.90;;;;;;;;;;1718120;80;20989;-60
2022/08/28 10:21:02;;;;;;;25.95;5.85;;;;;;;;;;1753165;81;21008;-60
2022/08/28 10:23:39;;;;;;;34.25;7.00;;;;;;;;;;1750964;81;21051;-61
2022/08/28 10:26:24;;;;;;;25.10;6.25;;;;;;;;;;1759611;81;21520;-60
2022/08/28 10:29:16;;;;;;;30.00;6.58;;;;;;;;;;1749411;82;21061;-62
2022/08/28 10:31:55;;;;;;;27.02;6.00;;;;;;;;;;1762076;80;20998;-61
2022/08/28 10:34:38;;;;;;;30.05;6.37;;;;;;;;;;1757686;80;21537;-61
2022/08/28 10:37:40;;;;;;;20.72;5.90;;;;;;;;;;1768839;81;21035;-60
2022/08/28 10:40:19;;;;;;;22.60;6.22;;;;;;;;;;1766513;80;21015;-62
2022/08/28 10:42:56;;;;;;;22.37;5.95;;;;;;;;;;1748082;81;21087;-61
2022/08/28 10:45:24;;;;;;;25.68;6.83;;;;;;;;;;1749931;81;22256;-61
2022/08/28 10:48:09;;;;;;;25.40;5.97;;;;;;;;;;1766444;80;21004;-61
2022/08/28 10:50:59;;;;;;;30.12;6.55;;;;;;;;;;1730424;82;21033;-62
2022/08/28 10:53:38;;;;;;;26.80;6.62;;;;;;;;;;1755648;81;21023;-62
2022/08/28 10:56:11;;;;;;;16.90;5.70;;;;;;;;;;1749475;81;21564;-61
2022/08/28 10:58:40;;;;;;;27.15;6.20;;;;;;;;;;1749131;82;21028;-61
2022/08/28 11:01:10;;;;;;;30.17;6.22;;;;;;;;;;1749430;82;21016;-60
2022/08/28 11:03:43;;;;;;;29.27;6.65;;;;;;;;;;1749495;81;21060;-60
2022/08/28 11:06:32;;;;;;;28.27;6.45;;;;;;;;;;1740677;81;21093;-61
2022/08/28 11:09:23;;;;;;;28.62;6.50;;;;;;;;;;1740551;81;21044;-61
2022/08/28 11:11:47;;;;;;;31.90;6.80;;;;;;;;;;1717692;82;21075;-61
2022/08/28 11:14:35;;;;;;;28.15;6.40;;;;;;;;;;1726619;81;21032;-60
2022/08/28 11:17:06;;;;;;;20.92;5.92;;;;;;;;;;1757441;81;21024;-61
2022/08/28 11:19:46;;;;;;;24.55;5.55;;;;;;;;;;1752804;81;21543;-60
2022/08/28 11:22:25;;;;;;;21.40;6.30;;;;;;;;;;1757260;81;21676;-60
2022/08/28 11:25:17;;;;;;;27.35;6.45;;;;;;;;;;1745688;81;21667;-60
2022/08/28 11:28:17;;;;;;;25.48;5.75;;;;;;;;;;1720821;82;21028;-60
2022/08/28 11:30:46;;;;;;;25.35;5.45;;;;;;;;;;1745224;81;21016;-61
2022/08/28 11:33:36;;;;;;;29.05;5.65;;;;;;;;;;1743800;80;21054;-60
2022/08/28 11:36:12;;;;;;;29.18;5.53;;;;;;;;;;1734471;81;21006;-60
2022/08/28 11:38:45;;;;;;;24.72;5.50;;;;;;;;;;1674003;83;21086;-60
2022/08/28 11:41:20;;;;;;;24.10;6.03;;;;;;;;;;1735739;81;21067;-61
2022/08/28 11:43:51;;;;;;;30.92;6.15;;;;;;;;;;1750759;81;21036;-63
2022/08/28 11:46:32;;;;;;;22.00;5.67;;;;;;;;;;1733525;82;22483;-61
2022/08/28 11:49:02;;;;;;;24.87;5.83;;;;;;;;;;1752203;81;21525;-62
2022/08/28 11:51:44;;;;;;;32.20;5.85;;;;;;;;;;1746244;81;21008;-61
2022/08/28 11:54:29;;;;;;;20.85;5.62;;;;;;;;;;1747161;81;21062;-62
2022/08/28 11:57:17;;;;;;;29.77;6.37;;;;;;;;;;1762591;81;21025;-61
2022/08/28 12:00:13;;;;;;;26.57;5.65;;;;;;;;;;1753685;80;21495;-61
2022/08/28 12:02:46;;;;;;;28.57;6.42;;;;;;;;;;1763109;81;21083;-61
2022/08/28 12:05:16;;;;;;;22.73;5.75;;;;;;;;;;1753452;81;21075;-61
2022/08/28 12:07:45;;;;;;;20.57;6.22;;;;;;;;;;1756688;80;21056;-62
2022/08/28 12:10:23;;;;;;;22.75;5.75;;;;;;;;;;1749597;81;21060;-62
2022/08/28 12:12:56;;;;;;;21.90;5.70;;;;;;;;;;1736967;81;21064;-61
2022/08/28 12:15:32;;;;;;;25.43;5.87;;;;;;;;;;1749214;81;21083;-61
2022/08/28 12:18:12;;;;;;;27.70;5.78;;;;;;;;;;1761194;81;21535;-62
2022/08/28 12:20:48;;;;;;;25.92;5.80;;;;;;;;;;1749543;81;21587;-62
2022/08/28 12:23:39;;;;;;;20.80;5.95;;;;;;;;;;1728563;81;21019;-61
2022/08/28 12:26:12;;;;;;;19.67;5.92;;;;;;;;;;1741991;81;21079;-61
2022/08/28 12:28:45;;;;;;;20.88;5.40;;;;;;;;;;1747299;81;21066;-61
2022/08/28 12:34:25;;;;;;;20.37;5.00;;;;;;;;;;1750998;80;21137;-61
2022/08/28 12:36:55;;;;;;;21.62;5.83;;;;;;;;;;1740001;81;21059;-61
2022/08/28 12:39:22;;;;;;;20.85;5.42;;;;;;;;;;1759941;81;21540;-61
2022/08/28 12:41:49;;;;;;;18.50;5.85;;;;;;;;;;1747841;81;21021;-61
2022/08/28 12:44:16;;;;;;;26.75;6.08;;;;;;;;;;1738133;81;21107;-61
2022/08/28 12:46:43;;;;;;;26.45;5.72;;;;;;;;;;1712941;81;21069;-61
2022/08/28 12:49:30;;;;;;;24.43;5.55;;;;;;;;;;1751921;81;20993;-61
2022/08/28 12:52:15;;;;;;;26.17;5.78;;;;;;;;;;1764019;81;20985;-62
2022/08/28 12:54:44;;;;;;;27.37;5.80;;;;;;;;;;1722786;82;21107;-61
2022/08/28 12:57:14;;;;;;;26.62;5.75;;;;;;;;;;1735056;82;21524;-61
2022/08/28 12:59:43;;;;;;;22.90;5.95;;;;;;;;;;1757285;81;21115;-63
2022/08/28 13:02:25;;;;;;;27.77;6.28;;;;;;;;;;1760807;81;21091;-61
2022/08/28 13:04:59;;;;;;;27.25;6.12;;;;;;;;;;1736289;82;21079;-61
2022/08/28 13:07:29;;;;;;;21.10;5.72;;;;;;;;;;1749724;81;21555;-61
2022/08/28 13:09:59;;;;;;;25.27;6.12;;;;;;;;;;1758408;81;21640;-61
2022/08/28 13:12:29;;;;;;;26.60;6.10;;;;;;;;;;1756055;81;21522;-61
2022/08/28 13:14:56;;;;;;;21.12;6.30;;;;;;;;;;1748817;81;21553;-61
2022/08/28 13:17:47;;;;;;;23.57;6.00;;;;;;;;;;1743651;81;21540;-61
2022/08/28 13:20:25;;;;;;;18.02;5.80;;;;;;;;;;1749372;81;21492;-61
2022/08/28 13:22:52;;;;;;;28.38;6.33;;;;;;;;;;1734942;81;21036;-62
2022/08/28 13:25:25;;;;;;;32.08;6.67;;;;;;;;;;1749223;81;21064;-62
2022/08/28 13:27:58;;;;;;;25.70;6.08;;;;;;;;;;1669491;85;21342;-61
2022/08/28 13:30:32;;;;;;;21.82;5.83;;;;;;;;;;1745822;81;21504;-61
2022/08/28 13:33:03;;;;;;;29.25;6.05;;;;;;;;;;1749048;81;21028;-60
2022/08/28 13:35:33;;;;;;;32.38;6.40;;;;;;;;;;1741520;81;21064;-60
2022/08/28 13:38:03;;;;;;;27.05;6.03;;;;;;;;;;1759408;80;21047;-61
2022/08/28 13:40:34;;;;;;;32.93;6.30;;;;;;;;;;1746604;81;21067;-60
2022/08/28 13:43:05;;;;;;;28.60;6.92;;;;;;;;;;1759778;81;21072;-60
2022/08/28 13:45:36;;;;;;;29.82;6.08;;;;;;;;;;1764353;81;21039;-60
2022/08/28 13:48:04;;;;;;;23.73;6.00;;;;;;;;;;1761762;81;21121;-60
2022/08/28 13:50:31;;;;;;;26.68;6.45;;;;;;;;;;1764026;80;21438;-60
2022/08/28 13:52:58;;;;;;;32.58;6.65;;;;;;;;;;1759670;81;21028;-60
2022/08/28 13:55:25;;;;;;;30.17;6.03;;;;;;;;;;1757644;80;22147;-61
2022/08/28 13:57:53;;;;;;;27.73;5.95;;;;;;;;;;1763903;81;21024;-60
2022/08/28 14:00:20;;;;;;;23.07;6.55;;;;;;;;;;1763987;80;21040;-61
2022/08/28 14:05:33;;;;;;;26.20;6.70;;;;;;;;;;1753813;81;21076;-61
2022/08/28 14:08:00;;;;;;;27.45;5.97;;;;;;;;;;1762081;81;21058;-61
2022/08/28 14:10:26;;;;;;;27.30;6.60;;;;;;;;;;1749635;81;21048;-60
2022/08/28 14:12:55;;;;;;;28.85;6.90;;;;;;;;;;1758581;81;21467;-60
2022/08/28 14:15:21;;;;;;;27.37;5.95;;;;;;;;;;1752876;81;21033;-60
2022/08/28 14:17:49;;;;;;;27.30;6.22;;;;;;;;;;1750161;80;21517;-60
2022/08/28 14:20:16;;;;;;;31.85;6.65;;;;;;;;;;1757857;80;21074;-60
2022/08/28 14:22:43;;;;;;;33.60;6.15;;;;;;;;;;1761306;81;21024;-60
2022/08/28 14:25:10;;;;;;;30.92;6.67;;;;;;;;;;1757713;80;21048;-60
2022/08/28 14:27:38;;;;;;;30.25;6.60;;;;;;;;;;1753321;80;21040;-60
2022/08/28 14:30:07;;;;;;;33.42;6.90;;;;;;;;;;1763565;80;21040;-61
2022/08/28 14:32:34;;;;;;;35.13;7.03;;;;;;;;;;1763806;80;21005;-60
2022/08/28 14:35:02;;;;;;;41.33;7.25;;;;;;;;;;1761597;80;21037;-60
2022/08/28 14:37:30;;;;;;;32.53;7.67;;;;;;;;;;1754046;80;21035;-60
2022/08/28 14:39:56;;;;;;;34.08;6.70;;;;;;;;;;1760653;80;21520;-60
2022/08/28 14:42:25;;;;;;;34.58;7.37;;;;;;;;;;1769838;80;21508;-60
2022/08/28 14:44:52;;;;;;;29.15;6.58;;;;;;;;;;1763810;81;21476;-60
2022/08/28 14:47:19;;;;;;;34.95;6.60;;;;;;;;;;1763588;80;21871;-60
2022/08/28 14:49:46;;;;;;;23.38;6.53;;;;;;;;;;1763761;80;21520;-61
2022/08/28 14:52:13;;;;;;;29.77;6.90;;;;;;;;;;1756999;81;21495;-60
2022/08/28 14:54:40;;;;;;;23.90;6.30;;;;;;;;;;1760560;80;21067;-61
2022/08/28 14:57:07;;;;;;;31.45;7.00;;;;;;;;;;1758441;80;21007;-60
2022/08/28 14:59:34;;;;;;;28.90;6.50;;;;;;;;;;1766547;81;21072;-61
2022/08/28 15:02:01;;;;;;;29.80;6.55;;;;;;;;;;1760686;81;21080;-60
2022/08/28 15:04:35;;;;;;;41.73;7.67;;;;;;;;;;1764073;81;21060;-60
2022/08/28 15:07:00;;;;;;;33.78;7.67;;;;;;;;;;1760527;80;21080;-61
2022/08/28 15:09:27;;;;;;;34.13;8.03;;;;;;;;;;1763910;80;21563;-60